createdAt,value
2022-11-28T00:01:41.870Z,10.40
2022-11-28T00:04:09.664Z,9.82
2022-11-28T00:06:40.879Z,10.77
2022-11-28T00:09:09.077Z,10.65
2022-11-28T00:11:36.229Z,10.35
2022-11-28T00:14:03.492Z,11.10
2022-11-28T00:16:31.000Z,11.32
2022-11-28T00:19:00.491Z,10.80
2022-11-28T00:21:29.148Z,10.32
2022-11-28T00:23:56.109Z,9.13
2022-11-28T00:26:37.508Z,9.15
2022-11-28T00:29:06.841Z,8.43
2022-11-28T00:31:37.023Z,8.45
2022-11-28T00:34:04.040Z,8.90
2022-11-28T00:36:31.234Z,8.07
2022-11-28T00:38:58.154Z,7.07
2022-11-28T00:41:28.772Z,7.65
2022-11-28T00:43:56.838Z,7.95
2022-11-28T00:46:24.925Z,8.10
2022-11-28T00:48:52.715Z,7.05
2022-11-28T00:51:23.017Z,7.43
2022-11-28T00:53:52.918Z,7.47
2022-11-28T00:56:24.562Z,7.57
2022-11-28T00:58:52.481Z,7.43
2022-11-28T01:01:26.307Z,7.07
2022-11-28T01:03:56.523Z,6.80
2022-11-28T01:06:25.292Z,6.93
2022-11-28T01:08:52.938Z,6.68
2022-11-28T01:11:20.057Z,7.63
2022-11-28T01:13:47.480Z,6.93
2022-11-28T01:16:15.106Z,6.90
2022-11-28T01:18:42.441Z,6.88
2022-11-28T01:21:09.932Z,6.32
2022-11-28T01:23:37.494Z,7.20
2022-11-28T01:26:07.185Z,9.07
2022-11-28T01:28:35.351Z,6.93
2022-11-28T01:31:11.503Z,5.90
2022-11-28T01:33:38.927Z,5.95
2022-11-28T01:36:05.997Z,6.78
2022-11-28T01:38:34.808Z,5.97
2022-11-28T01:41:02.349Z,6.90
2022-11-28T01:43:29.572Z,6.57
2022-11-28T01:45:56.516Z,6.68
2022-11-28T01:48:27.072Z,6.10
2022-11-28T01:50:58.681Z,6.53
2022-11-28T01:53:30.560Z,6.70
2022-11-28T01:56:13.184Z,6.30
2022-11-28T01:58:43.693Z,6.15
2022-11-28T02:01:24.666Z,5.85
2022-11-28T02:04:02.827Z,5.95
2022-11-28T02:06:32.914Z,5.97
2022-11-28T02:08:59.831Z,6.35
2022-11-28T02:12:01.267Z,5.75
2022-11-28T02:14:54.720Z,6.30
2022-11-28T02:17:43.609Z,6.15
2022-11-28T02:21:04.812Z,5.28
2022-11-28T02:23:59.063Z,5.05
2022-11-28T02:27:10.623Z,5.55
2022-11-28T02:29:56.300Z,6.22
2022-11-28T02:32:45.574Z,5.28
2022-11-28T02:35:12.666Z,6.00
2022-11-28T02:37:45.626Z,6.03
2022-11-28T02:40:32.424Z,5.85
2022-11-28T02:42:59.250Z,6.13
2022-11-28T02:45:29.233Z,5.55
2022-11-28T02:48:10.916Z,5.57
2022-11-28T02:50:47.061Z,5.25
2022-11-28T02:53:20.220Z,6.18
2022-11-28T02:55:49.095Z,6.45
2022-11-28T02:58:15.976Z,6.47
2022-11-28T03:00:45.193Z,6.13
2022-11-28T03:06:30.392Z,5.50
2022-11-28T03:09:09.643Z,5.15
2022-11-28T03:12:14.067Z,6.82
2022-11-28T03:14:55.181Z,5.70
2022-11-28T03:17:27.277Z,5.90
2022-11-28T03:20:23.840Z,6.78
2022-11-28T03:23:17.853Z,5.43
2022-11-28T03:25:56.469Z,6.13
2022-11-28T03:28:30.094Z,5.03
2022-11-28T03:31:05.501Z,5.03
2022-11-28T03:33:39.060Z,4.95
2022-11-28T03:36:22.634Z,4.82
2022-11-28T03:38:54.777Z,4.80
2022-11-28T03:41:31.082Z,5.35
2022-11-28T03:43:59.098Z,4.57
2022-11-28T03:46:34.547Z,5.05
2022-11-28T03:49:27.503Z,4.45
2022-11-28T03:52:03.852Z,4.18
2022-11-28T03:54:52.277Z,4.55
2022-11-28T03:57:34.725Z,4.37
2022-11-28T04:00:14.838Z,3.88
2022-11-28T04:03:18.900Z,4.30
2022-11-28T04:06:08.215Z,3.83
2022-11-28T04:08:42.321Z,3.95
2022-11-28T04:11:34.801Z,3.63
2022-11-28T04:14:20.461Z,3.90
2022-11-28T04:16:58.533Z,4.03
2022-11-28T04:19:44.877Z,4.30
2022-11-28T04:22:35.468Z,3.70
2022-11-28T04:25:10.202Z,3.80
2022-11-28T04:27:46.937Z,3.58
2022-11-28T04:30:14.563Z,3.17
2022-11-28T04:32:50.690Z,3.35
2022-11-28T04:35:26.645Z,3.60
2022-11-28T04:37:55.397Z,3.20
2022-11-28T04:40:24.070Z,2.87
2022-11-28T04:42:56.151Z,2.83
2022-11-28T04:45:43.938Z,2.60
2022-11-28T04:48:12.094Z,2.60
2022-11-28T04:51:01.688Z,2.30
2022-11-28T04:54:17.780Z,2.70
2022-11-28T04:56:52.771Z,2.67
2022-11-28T04:59:26.281Z,2.83
2022-11-28T05:02:00.091Z,2.47
2022-11-28T05:04:27.776Z,2.85
2022-11-28T05:07:03.127Z,2.20
2022-11-28T05:09:33.854Z,2.55
2022-11-28T05:12:01.369Z,2.08
2022-11-28T05:14:29.247Z,2.67
2022-11-28T05:17:08.717Z,2.75
2022-11-28T05:19:39.121Z,2.55
2022-11-28T05:22:06.433Z,2.67
2022-11-28T05:24:33.292Z,2.83
2022-11-28T05:27:04.711Z,3.30
2022-11-28T05:29:31.745Z,3.33
2022-11-28T05:31:58.691Z,3.05
2022-11-28T05:34:25.885Z,3.20
2022-11-28T05:36:52.891Z,3.42
2022-11-28T05:39:19.773Z,3.33
2022-11-28T05:41:48.920Z,3.22
2022-11-28T05:44:17.070Z,5.90
2022-11-28T05:46:44.018Z,3.40
2022-11-28T05:49:10.913Z,3.20
2022-11-28T05:51:37.925Z,3.38
2022-11-28T05:54:05.346Z,3.38
2022-11-28T05:56:32.795Z,3.35
2022-11-28T05:58:59.693Z,3.35
2022-11-28T06:01:28.767Z,3.42
2022-11-28T06:04:01.150Z,3.88
2022-11-28T06:06:31.209Z,3.50
2022-11-28T06:08:58.756Z,3.25
2022-11-28T06:11:28.886Z,3.92
2022-11-28T06:13:56.053Z,3.50
2022-11-28T06:16:25.648Z,4.22
2022-11-28T06:18:54.980Z,4.18
2022-11-28T06:23:49.609Z,4.32
2022-11-28T06:26:19.354Z,3.75
2022-11-28T06:28:46.646Z,3.97
2022-11-28T06:31:19.652Z,3.85
2022-11-28T06:33:47.013Z,4.13
2022-11-28T06:36:19.055Z,5.05
2022-11-28T06:38:46.911Z,4.18
2022-11-28T06:41:17.478Z,4.57
2022-11-28T06:43:44.612Z,4.03
2022-11-28T06:46:16.303Z,4.72
2022-11-28T06:48:44.581Z,4.90
2022-11-28T06:51:12.688Z,4.13
2022-11-28T06:53:40.063Z,4.65
2022-11-28T06:56:09.394Z,4.15
2022-11-28T06:58:37.386Z,4.90
2022-11-28T07:01:13.653Z,4.70
2022-11-28T07:03:41.500Z,5.07
2022-11-28T07:06:09.042Z,4.97
2022-11-28T07:08:36.231Z,5.05
2022-11-28T07:11:32.006Z,6.05
2022-11-28T07:14:01.947Z,4.72
2022-11-28T07:16:31.574Z,5.43
2022-11-28T07:18:59.582Z,5.43
2022-11-28T07:21:27.154Z,5.43
2022-11-28T07:23:54.369Z,5.28
2022-11-28T07:26:22.539Z,5.45
2022-11-28T07:28:51.095Z,5.22
2022-11-28T07:31:25.607Z,5.90
2022-11-28T07:33:53.075Z,6.15
2022-11-28T07:36:28.001Z,5.72
2022-11-28T07:38:57.898Z,9.18
2022-11-28T07:41:27.063Z,8.25
2022-11-28T07:44:00.147Z,8.48
2022-11-28T07:46:29.748Z,8.70
2022-11-28T07:48:57.472Z,8.35
2022-11-28T07:51:27.406Z,9.30
2022-11-28T07:53:54.936Z,9.55
2022-11-28T07:56:25.494Z,10.43
2022-11-28T07:58:52.895Z,10.52
2022-11-28T08:01:23.200Z,11.18
2022-11-28T08:03:51.612Z,10.70
2022-11-28T08:06:21.166Z,12.07
2022-11-28T08:08:48.835Z,10.50
2022-11-28T08:11:17.716Z,9.63
2022-11-28T08:13:45.488Z,10.07
2022-11-28T08:16:21.284Z,9.68
2022-11-28T08:18:49.171Z,9.77
2022-11-28T08:21:30.671Z,9.48
2022-11-28T08:24:00.741Z,10.23
2022-11-28T08:26:30.829Z,9.05
2022-11-28T08:28:58.995Z,8.18
2022-11-28T08:31:34.827Z,8.15
2022-11-28T08:34:07.130Z,7.22
2022-11-28T08:36:34.078Z,7.45
2022-11-28T08:39:22.307Z,8.00
2022-11-28T08:41:49.928Z,6.95
2022-11-28T08:44:17.011Z,7.40
2022-11-28T08:46:45.092Z,7.03
2022-11-28T08:49:12.196Z,8.10
2022-11-28T08:51:39.177Z,8.18
2022-11-28T08:54:06.608Z,8.02
2022-11-28T08:56:34.341Z,7.70
2022-11-28T08:59:01.568Z,8.43
2022-11-28T09:01:29.226Z,8.23
2022-11-28T09:03:57.127Z,8.45
2022-11-28T09:06:24.075Z,10.35
2022-11-28T09:08:51.725Z,9.05
2022-11-28T09:11:22.763Z,9.88
2022-11-28T09:13:50.045Z,8.50
2022-11-28T09:16:17.810Z,7.95
2022-11-28T09:18:45.004Z,8.07
2022-11-28T09:21:13.928Z,7.75
2022-11-28T09:23:42.601Z,6.97
2022-11-28T09:26:11.716Z,7.97
2022-11-28T09:28:38.627Z,7.60
2022-11-28T09:31:07.099Z,7.30
2022-11-28T09:33:34.721Z,6.80
2022-11-28T09:36:09.725Z,7.85
2022-11-28T09:38:37.246Z,7.85
2022-11-28T09:41:18.468Z,6.68
2022-11-28T09:43:52.002Z,6.97
2022-11-28T09:46:29.183Z,7.22
2022-11-28T09:49:00.637Z,6.72
2022-11-28T09:52:10.644Z,5.20
2022-11-28T09:54:43.242Z,4.70
2022-11-28T09:57:21.841Z,4.40
2022-11-28T09:59:49.245Z,3.63
2022-11-28T10:02:16.435Z,3.30
2022-11-28T10:05:24.638Z,3.45
2022-11-28T10:08:04.113Z,3.37
2022-11-28T10:13:59.816Z,3.10
2022-11-28T10:17:09.865Z,2.83
2022-11-28T10:19:54.270Z,2.75
2022-11-28T10:22:32.458Z,2.90
2022-11-28T10:25:06.412Z,3.33
2022-11-28T10:27:36.067Z,4.28
2022-11-28T10:30:08.008Z,4.15
2022-11-28T10:32:40.542Z,4.03
2022-11-28T10:35:26.711Z,3.67
2022-11-28T10:37:55.423Z,3.63
2022-11-28T10:40:32.828Z,3.60
2022-11-28T10:43:12.467Z,3.15
2022-11-28T10:45:51.244Z,3.35
2022-11-28T10:48:39.903Z,4.57
2022-11-28T10:52:07.521Z,3.78
2022-11-28T10:54:46.832Z,3.85
2022-11-28T10:57:20.335Z,3.08
2022-11-28T11:00:03.919Z,2.97
2022-11-28T11:02:43.089Z,3.63
2022-11-28T11:05:19.389Z,3.83
2022-11-28T11:07:53.185Z,3.72
2022-11-28T11:10:33.205Z,3.65
2022-11-28T11:13:00.547Z,3.58
2022-11-28T11:15:33.586Z,3.67
2022-11-28T11:18:05.230Z,3.88
2022-11-28T11:20:40.097Z,3.47
2022-11-28T11:23:20.335Z,2.67
2022-11-28T11:25:58.397Z,3.40
2022-11-28T11:28:25.503Z,3.78
2022-11-28T11:31:00.523Z,3.40
2022-11-28T11:33:36.867Z,3.15
2022-11-28T11:36:06.191Z,3.70
2022-11-28T11:41:29.625Z,4.10
2022-11-28T11:44:20.649Z,4.53
2022-11-28T11:47:11.109Z,3.75
2022-11-28T11:49:48.472Z,4.72
2022-11-28T11:52:26.595Z,5.22
2022-11-28T11:54:57.053Z,4.72
2022-11-28T11:58:05.489Z,4.70
2022-11-28T12:00:40.779Z,8.50
2022-11-28T12:03:35.479Z,4.53
2022-11-28T12:06:15.229Z,3.85
2022-11-28T12:08:51.437Z,4.50
2022-11-28T12:11:22.142Z,4.20
2022-11-28T12:13:50.894Z,4.05
2022-11-28T12:16:23.627Z,4.53
2022-11-28T12:19:23.443Z,4.53
2022-11-28T12:22:28.493Z,5.90
2022-11-28T12:25:05.074Z,4.18
2022-11-28T12:27:59.328Z,3.80
2022-11-28T12:30:26.250Z,5.00
2022-11-28T12:33:08.708Z,3.97
2022-11-28T12:35:42.311Z,3.88
2022-11-28T12:38:11.207Z,3.17
2022-11-28T12:43:47.643Z,3.33
2022-11-28T12:46:23.831Z,3.63
2022-11-28T12:48:53.925Z,3.15
2022-11-28T12:51:57.545Z,3.67
2022-11-28T12:54:42.687Z,3.20
2022-11-28T12:57:41.060Z,3.22
2022-11-28T13:00:28.364Z,3.70
2022-11-28T13:03:24.813Z,3.35
2022-11-28T13:06:03.263Z,3.28
2022-11-28T13:08:48.000Z,3.55
2022-11-28T13:11:37.175Z,3.20
2022-11-28T13:14:27.395Z,3.50
2022-11-28T13:16:59.428Z,4.85
2022-11-28T13:19:54.722Z,3.55
2022-11-28T13:22:33.246Z,4.30
2022-11-28T13:25:08.474Z,3.87
2022-11-28T13:27:49.146Z,4.10
2022-11-28T13:30:27.008Z,6.75
2022-11-28T13:33:29.907Z,4.40
2022-11-28T13:36:00.003Z,4.10
2022-11-28T13:38:51.992Z,4.45
2022-11-28T13:42:16.197Z,4.03
2022-11-28T13:45:15.484Z,4.10
2022-11-28T13:47:42.855Z,4.68
2022-11-28T13:50:25.088Z,4.72
2022-11-28T13:53:25.502Z,4.50
2022-11-28T13:56:07.916Z,4.78
2022-11-28T13:58:48.655Z,4.72
2022-11-28T14:01:24.932Z,5.82
2022-11-28T14:04:01.541Z,4.85
2022-11-28T14:06:40.153Z,4.70
2022-11-28T14:09:16.257Z,4.83
2022-11-28T14:12:03.532Z,10.98
2022-11-28T14:14:57.135Z,10.90
2022-11-28T14:17:43.261Z,11.57
2022-11-28T14:20:13.373Z,4.88
2022-11-28T14:22:47.994Z,4.70
2022-11-28T14:25:28.790Z,23.45
2022-11-28T14:27:59.809Z,7.53
2022-11-28T14:30:34.501Z,4.53
2022-11-28T14:33:06.747Z,3.72
2022-11-28T14:35:52.397Z,2.95
2022-11-28T14:38:32.301Z,4.60
2022-11-28T14:41:04.297Z,3.70
2022-11-28T14:43:33.802Z,2.80
2022-11-28T14:47:21.927Z,3.25
2022-11-28T14:50:10.588Z,2.90
2022-11-28T14:52:52.215Z,2.92
2022-11-28T14:55:22.490Z,3.40
2022-11-28T14:58:05.418Z,3.40
2022-11-28T15:00:58.033Z,3.20
2022-11-28T15:03:43.523Z,3.08
2022-11-28T15:06:37.289Z,3.65
2022-11-28T15:09:19.045Z,3.95
2022-11-28T15:12:08.392Z,3.33
2022-11-28T15:14:38.310Z,4.05
2022-11-28T15:17:11.685Z,4.20
2022-11-28T15:19:48.234Z,4.47
2022-11-28T15:22:31.941Z,4.78
2022-11-28T15:24:59.278Z,4.53
2022-11-28T15:27:28.065Z,5.00
2022-11-28T15:29:56.652Z,5.27
2022-11-28T15:32:25.733Z,4.72
2022-11-28T15:37:29.664Z,4.50
2022-11-28T15:39:57.705Z,4.88
2022-11-28T15:42:29.759Z,5.60
2022-11-28T15:45:06.354Z,6.55
2022-11-28T15:47:35.143Z,4.90
2022-11-28T15:50:21.012Z,4.70
2022-11-28T15:52:56.003Z,4.13
2022-11-28T15:55:23.215Z,4.55
2022-11-28T15:57:52.145Z,4.85
2022-11-28T16:00:22.051Z,4.85
2022-11-28T16:02:49.582Z,5.18
2022-11-28T16:05:23.672Z,5.25
2022-11-28T16:07:51.600Z,4.90
2022-11-28T16:10:29.484Z,8.90
2022-11-28T16:13:03.424Z,7.25
2022-11-28T16:15:32.415Z,8.77
2022-11-28T16:18:00.516Z,7.27
2022-11-28T16:20:34.104Z,6.90
2022-11-28T16:23:08.950Z,7.05
2022-11-28T16:25:36.390Z,7.05
2022-11-28T16:28:03.978Z,7.35
2022-11-28T16:30:48.083Z,7.65
2022-11-28T16:33:38.462Z,7.65
2022-11-28T16:36:18.358Z,7.35
2022-11-28T16:38:47.416Z,7.40
2022-11-28T16:41:25.567Z,7.22
2022-11-28T16:43:56.564Z,7.47
2022-11-28T16:46:27.447Z,7.55
2022-11-28T16:48:59.616Z,8.23
2022-11-28T16:51:26.468Z,7.65
2022-11-28T16:53:56.433Z,8.25
2022-11-28T16:56:27.598Z,7.20
2022-11-28T16:59:00.859Z,7.13
2022-11-28T17:01:29.219Z,6.35
2022-11-28T17:03:57.796Z,5.85
2022-11-28T17:06:27.485Z,6.40
2022-11-28T17:08:57.931Z,5.95
2022-11-28T17:11:33.097Z,5.68
2022-11-28T17:14:02.551Z,6.22
2022-11-28T17:16:33.756Z,5.97
2022-11-28T17:19:00.784Z,6.65
2022-11-28T17:21:34.538Z,6.55
2022-11-28T17:24:02.020Z,5.80
2022-11-28T17:26:29.085Z,5.63
2022-11-28T17:28:58.222Z,5.45
2022-11-28T17:31:25.232Z,7.72
2022-11-28T17:33:52.423Z,7.43
2022-11-28T17:36:19.389Z,7.05
2022-11-28T17:38:46.729Z,7.20
2022-11-28T17:41:14.810Z,6.97
2022-11-28T17:43:41.983Z,6.53
2022-11-28T17:46:09.720Z,6.57
2022-11-28T17:48:37.013Z,7.20
2022-11-28T17:51:04.835Z,6.53
2022-11-28T17:53:32.425Z,5.67
2022-11-28T17:55:59.952Z,5.95
2022-11-28T17:58:28.899Z,6.35
2022-11-28T18:01:00.569Z,6.13
2022-11-28T18:03:29.894Z,5.82
2022-11-28T18:05:57.466Z,5.57
2022-11-28T18:08:24.566Z,5.78
2022-11-28T18:11:03.363Z,5.50
2022-11-28T18:13:30.944Z,6.15
2022-11-28T18:15:58.132Z,6.18
2022-11-28T18:18:25.544Z,7.25
2022-11-28T18:20:52.784Z,7.10
2022-11-28T18:23:20.452Z,6.72
2022-11-28T18:25:47.862Z,7.47
2022-11-28T18:28:18.804Z,7.35
2022-11-28T18:30:48.630Z,8.68
2022-11-28T18:33:16.151Z,8.20
2022-11-28T18:35:43.728Z,8.10
2022-11-28T18:38:11.927Z,5.55
2022-11-28T18:40:39.587Z,5.43
2022-11-28T18:43:06.849Z,5.75
2022-11-28T18:45:34.801Z,4.60
2022-11-28T18:48:02.805Z,4.20
2022-11-28T18:50:30.600Z,3.50
2022-11-28T18:52:57.735Z,3.47
2022-11-28T18:55:25.292Z,3.38
2022-11-28T18:57:52.268Z,3.75
2022-11-28T19:00:20.343Z,3.83
2022-11-28T19:02:49.293Z,3.03
2022-11-28T19:05:16.454Z,3.80
2022-11-28T19:07:43.654Z,3.40
2022-11-28T19:10:12.296Z,3.25
2022-11-28T19:12:41.097Z,2.83
2022-11-28T19:15:08.415Z,2.55
2022-11-28T19:17:35.854Z,2.80
2022-11-28T19:20:03.806Z,2.78
2022-11-28T19:22:31.497Z,3.05
2022-11-28T19:24:58.626Z,3.25
2022-11-28T19:27:25.763Z,3.45
2022-11-28T19:29:53.468Z,4.20
2022-11-28T19:32:20.422Z,7.30
2022-11-28T19:34:52.267Z,7.75
2022-11-28T19:37:19.575Z,8.55
2022-11-28T19:39:46.877Z,8.18
2022-11-28T19:42:14.092Z,9.13
2022-11-28T19:44:41.207Z,7.53
2022-11-28T19:47:08.818Z,7.43
2022-11-28T19:49:35.895Z,7.70
2022-11-28T19:52:02.981Z,6.93
2022-11-28T19:54:30.196Z,6.03
2022-11-28T19:56:57.343Z,5.78
2022-11-28T19:59:24.834Z,5.43
2022-11-28T20:01:54.033Z,6.00
2022-11-28T20:04:22.655Z,5.78
2022-11-28T20:06:49.913Z,5.72
2022-11-28T20:09:17.595Z,5.05
2022-11-28T20:11:45.747Z,4.20
2022-11-28T20:14:22.468Z,3.95
2022-11-28T20:16:50.169Z,3.92
2022-11-28T20:19:18.372Z,3.80
2022-11-28T20:21:46.474Z,4.72
2022-11-28T20:24:14.435Z,4.25
2022-11-28T20:26:43.680Z,3.17
2022-11-28T20:29:17.019Z,3.15
2022-11-28T20:31:47.466Z,4.03
2022-11-28T20:34:18.641Z,3.50
2022-11-28T20:36:51.480Z,2.90
2022-11-28T20:39:19.131Z,3.05
2022-11-28T20:41:45.949Z,3.65
2022-11-28T20:44:13.066Z,2.95
2022-11-28T20:46:40.166Z,3.20
2022-11-28T20:49:07.666Z,3.38
2022-11-28T20:51:35.724Z,3.20
2022-11-28T20:54:05.129Z,3.80
2022-11-28T20:59:22.074Z,3.60
2022-11-28T21:01:49.304Z,3.30
2022-11-28T21:04:17.836Z,4.05
2022-11-28T21:06:47.540Z,3.03
2022-11-28T21:09:15.252Z,3.73
2022-11-28T21:11:56.827Z,3.28
2022-11-28T21:14:25.459Z,3.65
2022-11-28T21:16:52.362Z,4.13
2022-11-28T21:19:19.477Z,4.95
2022-11-28T21:21:46.411Z,5.30
2022-11-28T21:24:13.993Z,5.75
2022-11-28T21:26:48.079Z,6.18
2022-11-28T21:29:18.134Z,6.10
2022-11-28T21:31:45.868Z,4.45
2022-11-28T21:34:14.720Z,4.50
2022-11-28T21:36:42.713Z,4.63
2022-11-28T21:39:19.955Z,4.75
2022-11-28T21:41:47.566Z,3.50
2022-11-28T21:44:14.915Z,3.53
2022-11-28T21:46:42.700Z,3.70
2022-11-28T21:49:09.832Z,3.88
2022-11-28T21:51:39.925Z,3.95
2022-11-28T21:54:07.374Z,4.18
2022-11-28T21:56:34.476Z,4.15
2022-11-28T21:59:01.685Z,4.53
2022-11-28T22:01:29.293Z,4.38
2022-11-28T22:04:02.339Z,4.32
2022-11-28T22:06:32.257Z,10.55
2022-11-28T22:09:07.313Z,9.65
2022-11-28T22:11:36.080Z,4.07
2022-11-28T22:14:03.874Z,3.47
2022-11-28T22:16:31.287Z,3.17
2022-11-28T22:19:00.125Z,3.55
2022-11-28T22:24:14.687Z,3.22
2022-11-28T22:26:43.177Z,3.47
2022-11-28T22:29:13.421Z,4.03
2022-11-28T22:31:41.216Z,3.50
2022-11-28T22:34:09.293Z,3.08
2022-11-28T22:36:36.768Z,4.20
2022-11-28T22:39:08.139Z,3.40
2022-11-28T22:41:35.133Z,3.55
2022-11-28T22:44:04.341Z,3.40
2022-11-28T22:46:32.976Z,3.83
2022-11-28T22:49:02.340Z,3.83
2022-11-28T22:51:31.421Z,3.38
2022-11-28T22:54:01.088Z,3.20
2022-11-28T22:56:31.646Z,2.75
2022-11-28T22:59:00.063Z,9.30
2022-11-28T23:01:30.495Z,3.35
2022-11-28T23:03:58.658Z,2.65
2022-11-28T23:06:29.321Z,3.03
2022-11-28T23:08:58.888Z,3.70
2022-11-28T23:11:31.108Z,2.75
2022-11-28T23:14:00.132Z,3.47
2022-11-28T23:16:39.061Z,3.30
2022-11-28T23:19:11.537Z,3.10
2022-11-28T23:21:41.018Z,3.67
2022-11-28T23:24:13.919Z,3.33
2022-11-28T23:26:41.077Z,3.67
2022-11-28T23:29:08.130Z,3.00
2022-11-28T23:31:39.100Z,3.53
2022-11-28T23:34:08.504Z,3.28
2022-11-28T23:36:42.057Z,3.20
2022-11-28T23:39:15.514Z,4.70
2022-11-28T23:41:43.427Z,3.50
2022-11-28T23:44:11.853Z,3.05
2022-11-28T23:46:39.544Z,3.13
2022-11-28T23:49:06.863Z,2.83
2022-11-28T23:51:34.092Z,3.08
2022-11-28T23:54:01.300Z,3.05
2022-11-28T23:56:30.586Z,5.25
